Badan Meteorologi, Klimatologi, dan Geofisika

CUACA TERKINI BANDARA KUALANAMU

Minggu, 5 April 2020 21:04 UTC

Cuaca : Berawan

Angin : (dari) Tenggara, 5.6 km/jam

Jarak Pandang : >=10 km

Suhu : 25 °C

Waktu Pengamatan : 04:30 WIB

Selengkapnya>>>

DATA METEOROLOGI KUALANAMU

Data Metar Terbaru

WIMM 052130Z 12003KT 9999 SCT017 25/24 Q1008 NOSIG=

WIMM 052100Z 11003KT 9999 SCT017 25/24 Q1008 NOSIG=

WIMM 052030Z 08002KT 9999 SCT017 25/24 Q1008 NOSIG=

WIMM 052000Z 23003KT 9999 SCT017 26/24 Q1009 NOSIG=

WIMM 051930Z 22005KT 9999 SCT017 26/24 Q1010 NOSIG=

WIMM 051900Z 22006KT 190V250 9999 SCT017 26/24 Q1010 NOSIG=

TAF WIMM 051700Z 0518/0618 VRB04KT 4000 HZ SCT017 TEMPO 0520/0600 -RA FEW017CB SCT018 BECMG 0602/0604 01009KT 9000 BECMG 0612/0614 25005KT 4000 HZ TEMPO 0612/0616 VRB05KT -RA FEW017CB SCT018 =

Selengkapnya>>>

Data TAF Terbaru

TAF WIMM 051700Z 0518/0618 VRB04KT 4000 HZ SCT017 TEMPO 0520/0600 -RA FEW017CB SCT018 BECMG 0602/0604 01009KT 9000 BECMG 0612/0614 25005KT 4000 HZ TEMPO 0612/0616 VRB05KT -RA FEW017CB SCT018 =

Selengkapnya>>>

CITRA SATELIT

Enhanced
Citra Satelit
Cloud Type
Citra Satelit IR
Hotspot
Citra Satelit
Sebaran Asap
Citra Satelit